Time;durP1;ratioP1;P1;durP2;ratioP2;P2;SDS_P1;SDS_P2;PMS_P1;PMS_P2;Temp;Humidity;BMP_temperature;BMP_pressure;BME280_temperature;BME280_humidity;BME280_pressure;Samples;Min_cycle;Max_cycle;Signal;HPM_P1;HPM_P2
2022/09/30 00:01:06;;;;;;;7.88;6.55;;;;;;;13.82;54.96;98962.63;5112649;28;20101;-60
2022/09/30 00:03:32;;;;;;;6.80;6.13;;;;;;;13.82;54.74;98957.34;5112388;28;20047;-60
2022/09/30 00:06:02;;;;;;;7.53;6.78;;;;;;;13.80;54.93;98962.75;5112583;28;20082;-60
2022/09/30 00:08:35;;;;;;;8.65;7.75;;;;;;;13.81;54.84;98963.59;5111483;28;20078;-60
2022/09/30 00:11:08;;;;;;;8.73;7.10;;;;;;;13.79;54.99;98974.31;5112292;28;20048;-60
2022/09/30 00:13:37;;;;;;;7.53;6.75;;;;;;;13.80;54.51;98969.88;5111091;28;20073;-61
2022/09/30 00:16:04;;;;;;;9.32;7.32;;;;;;;13.77;54.58;98964.81;5111054;28;20389;-60
2022/09/30 00:18:31;;;;;;;9.82;7.82;;;;;;;13.75;54.87;98970.25;5112265;28;20090;-62
2022/09/30 00:20:58;;;;;;;8.40;7.45;;;;;;;13.74;54.53;98970.34;5111167;28;20579;-60
2022/09/30 00:23:25;;;;;;;7.80;7.03;;;;;;;13.71;54.49;98968.81;5112217;28;20079;-60
2022/09/30 00:25:57;;;;;;;9.23;7.47;;;;;;;13.67;54.86;98972.69;5112168;28;20093;-60
2022/09/30 00:28:24;;;;;;;10.48;7.47;;;;;;;13.67;54.66;98977.97;5111954;28;20376;-60
2022/09/30 00:30:51;;;;;;;8.80;7.47;;;;;;;13.64;54.63;98983.53;5112119;28;20439;-60
2022/09/30 00:33:18;;;;;;;9.88;7.55;;;;;;;13.62;54.66;98980.16;5112280;28;20105;-60
2022/09/30 00:35:44;;;;;;;9.30;7.38;;;;;;;13.61;54.68;98983.78;5112027;28;20130;-60
2022/09/30 00:38:11;;;;;;;9.70;7.78;;;;;;;13.58;54.69;98984.03;5112061;28;20078;-60
2022/09/30 00:40:38;;;;;;;8.68;7.63;;;;;;;13.54;54.61;98984.25;5111730;28;20466;-58
2022/09/30 00:43:16;;;;;;;10.98;8.18;;;;;;;13.46;55.13;98989.31;5111690;28;20075;-58
2022/09/30 00:45:52;;;;;;;9.23;7.78;;;;;;;13.43;54.94;98990.41;5111953;28;20130;-60
2022/09/30 00:48:33;;;;;;;10.60;8.48;;;;;;;13.37;55.12;98988.25;5110692;28;20047;-63
2022/09/30 00:51:01;;;;;;;10.90;8.15;;;;;;;13.37;54.89;98988.25;5111800;28;20043;-61
2022/09/30 00:53:47;;;;;;;10.73;7.68;;;;;;;13.29;55.33;98986.25;5109833;28;20044;-59
2022/09/30 00:56:23;;;;;;;8.35;7.43;;;;;;;13.28;55.26;98989.00;5108508;28;20097;-60
2022/09/30 00:58:58;;;;;;;9.75;8.32;;;;;;;13.23;55.19;98984.09;5103028;28;20099;-61
2022/09/30 01:01:25;;;;;;;10.02;8.32;;;;;;;13.23;54.96;98991.19;5110465;28;20126;-60
2022/09/30 01:04:04;;;;;;;9.88;8.73;;;;;;;13.20;55.07;98984.31;5111321;28;20059;-60
2022/09/30 01:06:31;;;;;;;9.02;7.60;;;;;;;13.17;54.89;98992.53;5111571;28;20114;-60
2022/09/30 01:08:57;;;;;;;11.65;9.13;;;;;;;13.15;54.95;98989.16;5111381;28;20058;-62
2022/09/30 01:11:26;;;;;;;10.48;8.25;;;;;;;13.11;55.27;98991.22;5111503;28;20047;-60
2022/09/30 01:13:56;;;;;;;11.50;9.25;;;;;;;13.09;55.35;98995.75;5111390;28;20059;-60
2022/09/30 01:16:52;;;;;;;10.10;8.18;;;;;;;13.05;55.69;99004.91;5109874;28;20047;-60
2022/09/30 01:19:38;;;;;;;9.73;8.38;;;;;;;13.05;55.62;98994.34;5111265;28;20078;-60
2022/09/30 01:22:19;;;;;;;9.43;8.35;;;;;;;13.05;55.70;98991.72;5109996;28;20075;-59
2022/09/30 01:24:48;;;;;;;10.68;8.85;;;;;;;13.06;55.36;98996.03;5109656;28;20048;-60
2022/09/30 01:27:48;;;;;;;12.48;9.18;;;;;;;13.02;55.74;98997.22;5111040;28;20096;-60
2022/09/30 01:30:20;;;;;;;9.52;8.45;;;;;;;13.02;55.69;98989.31;5110890;28;20078;-60
2022/09/30 01:33:00;;;;;;;10.50;8.75;;;;;;;12.99;55.70;98990.41;5111096;28;20090;-61
2022/09/30 01:35:33;;;;;;;11.02;9.20;;;;;;;13.01;55.18;98998.19;5111216;28;20105;-57
2022/09/30 01:38:27;;;;;;;10.35;8.98;;;;;;;12.94;55.94;98997.84;5111151;28;20051;-60
2022/09/30 01:41:04;;;;;;;14.25;8.98;;;;;;;12.92;55.81;98993.63;5111039;28;20047;-60
2022/09/30 01:43:31;;;;;;;9.98;8.88;;;;;;;12.90;55.37;98997.22;5110934;28;20079;-60
2022/09/30 01:46:19;;;;;;;12.27;9.52;;;;;;;12.86;55.65;99005.53;5110833;28;20556;-60
2022/09/30 01:48:49;;;;;;;10.75;8.15;;;;;;;12.81;55.67;99003.25;5110881;28;20079;-58
2022/09/30 01:51:26;;;;;;;15.52;9.32;;;;;;;12.74;56.02;99005.53;5110897;28;20051;-60
2022/09/30 01:54:04;;;;;;;9.50;8.45;;;;;;;12.70;56.08;99005.88;5110963;28;20404;-58
2022/09/30 01:56:40;;;;;;;11.15;8.98;;;;;;;12.65;56.06;99016.81;5109884;28;20051;-60
2022/09/30 01:59:15;;;;;;;9.35;7.90;;;;;;;12.62;56.14;99015.25;5110940;28;20055;-61
2022/09/30 02:02:03;;;;;;;14.27;9.63;;;;;;;12.56;56.26;99010.44;5110825;28;20075;-60
2022/09/30 02:04:41;;;;;;;13.15;8.88;;;;;;;12.52;56.38;99011.63;5110883;28;20051;-60
2022/09/30 02:07:14;;;;;;;12.35;8.77;;;;;;;12.50;56.36;99010.91;5109721;28;20105;-59
2022/09/30 02:09:50;;;;;;;;;;;;;;;12.49;56.07;99014.53;5109913;28;20081;-60
2022/09/30 02:12:20;;;;;;;10.35;8.15;;;;;;;12.50;56.13;99024.13;5110653;28;20340;-61
2022/09/30 02:14:54;;;;;;;12.07;8.45;;;;;;;12.47;56.38;99009.38;5109357;28;20043;-59
2022/09/30 02:17:42;;;;;;;9.43;8.05;;;;;;;12.43;56.62;99009.69;5110902;28;20373;-61
2022/09/30 02:20:14;;;;;;;9.98;8.65;;;;;;;12.48;56.33;99013.69;5110721;28;20457;-60
2022/09/30 02:23:15;;;;;;;10.88;8.90;;;;;;;12.46;56.73;99014.75;5109288;28;20108;-59
2022/09/30 02:25:46;;;;;;;11.25;8.95;;;;;;;12.52;56.28;99016.91;5099313;28;20142;-61
2022/09/30 02:28:19;;;;;;;9.70;8.73;;;;;;;12.52;56.45;99024.81;5110428;28;20079;-59
2022/09/30 02:30:51;;;;;;;12.35;8.52;;;;;;;12.53;56.31;99021.25;5110663;28;20051;-60
2022/09/30 02:33:59;;;;;;;9.82;8.82;;;;;;;12.51;56.35;99026.66;5110643;28;20044;-61
2022/09/30 02:36:36;;;;;;;11.35;9.30;;;;;;;12.55;56.37;99034.31;5050986;28;20115;-60
2022/09/30 02:39:28;;;;;;;13.95;8.90;;;;;;;12.54;56.24;99030.84;5050865;28;20053;-60
2022/09/30 02:42:05;;;;;;;9.00;7.78;;;;;;;12.54;56.30;99033.50;5097676;28;20043;-59
2022/09/30 02:44:32;;;;;;;10.98;9.05;;;;;;;12.54;55.95;99033.50;5114530;28;20075;-60
2022/09/30 02:47:09;;;;;;;9.77;8.77;;;;;;;12.51;56.03;99031.94;5114238;28;20048;-60
2022/09/30 02:50:16;;;;;;;12.13;9.43;;;;;;;12.47;56.41;99030.47;5112965;28;20162;-61
2022/09/30 02:52:51;;;;;;;11.02;9.35;;;;;;;12.42;56.42;99023.88;5050741;28;20103;-61
2022/09/30 02:55:52;;;;;;;12.90;9.32;;;;;;;12.38;56.50;99029.38;5104977;28;20060;-62
2022/09/30 02:58:24;;;;;;;10.38;8.98;;;;;;;12.34;55.96;99027.09;5058766;28;20088;-60
2022/09/30 03:00:53;;;;;;;13.40;9.32;;;;;;;12.30;56.05;99026.47;5114535;28;20104;-58
2022/09/30 03:03:20;;;;;;;12.32;9.40;;;;;;;12.25;56.20;99026.84;5112793;28;20055;-59
2022/09/30 03:05:48;;;;;;;12.32;10.00;;;;;;;12.22;56.42;99028.84;5114278;28;20096;-60
2022/09/30 03:08:15;;;;;;;13.23;9.52;;;;;;;12.19;56.33;99029.09;5112521;28;20048;-59
2022/09/30 03:10:43;;;;;;;12.27;9.85;;;;;;;12.17;56.39;99031.00;5113793;28;20464;-60
2022/09/30 03:13:47;;;;;;;16.33;9.82;;;;;;;12.10;57.10;99030.63;5112697;28;20453;-63
2022/09/30 03:16:17;;;;;;;;;;;;;;;12.12;56.41;99036.66;5114167;28;20526;-60
2022/09/30 03:19:11;;;;;;;8.77;7.88;;;;;;;12.10;56.81;99042.03;5113741;28;19924;-56
2022/09/30 03:21:56;;;;;;;9.20;7.97;;;;;;;12.12;56.44;99047.19;5113846;28;20059;-59
2022/09/30 03:25:08;;;;;;;13.65;9.25;;;;;;;12.06;57.21;99051.13;5113270;28;20055;-61
2022/09/30 03:28:07;;;;;;;9.93;8.45;;;;;;;12.06;56.99;99045.00;5112212;28;20120;-61
2022/09/30 03:30:44;;;;;;;10.90;8.63;;;;;;;12.08;56.82;99043.09;5113255;28;20091;-59
2022/09/30 03:33:26;;;;;;;12.40;8.82;;;;;;;12.07;56.42;99044.88;5112181;28;20139;-62
2022/09/30 03:36:04;;;;;;;10.68;8.65;;;;;;;12.04;56.76;99050.34;5113688;28;20128;-60
2022/09/30 03:39:12;;;;;;;10.93;8.70;;;;;;;12.01;56.86;99050.59;5113284;28;20090;-60
2022/09/30 03:41:49;;;;;;;10.02;8.02;;;;;;;12.03;56.81;99051.31;5063181;28;20051;-61
2022/09/30 03:44:19;;;;;;;10.93;9.18;;;;;;;12.02;56.91;99054.91;5112997;28;20134;-61
2022/09/30 03:46:51;;;;;;;10.55;8.65;;;;;;;12.01;56.74;99049.75;5112939;28;20485;-61
2022/09/30 03:49:24;;;;;;;12.50;8.52;;;;;;;12.00;56.64;99059.44;5111855;28;20411;-59
2022/09/30 03:51:51;;;;;;;9.32;8.18;;;;;;;12.00;56.38;99067.38;5113317;28;20071;-58
2022/09/30 03:54:18;;;;;;;14.20;9.40;;;;;;;11.97;56.46;99067.63;5112041;28;20043;-59
2022/09/30 03:56:45;;;;;;;10.13;8.93;;;;;;;11.95;56.47;99069.50;5112951;28;20431;-60
2022/09/30 03:59:21;;;;;;;10.05;8.95;;;;;;;11.91;57.02;99074.19;5112586;28;20091;-60
2022/09/30 04:01:49;;;;;;;14.85;8.43;;;;;;;11.91;56.58;99070.69;5112843;28;20083;-60
2022/09/30 04:04:15;;;;;;;9.32;8.35;;;;;;;11.89;56.72;99076.06;5112703;28;20043;-58
2022/09/30 04:06:42;;;;;;;10.18;8.70;;;;;;;11.88;56.73;99082.31;5112624;28;20427;-59
2022/09/30 04:09:09;;;;;;;12.40;8.43;;;;;;;11.86;56.64;99071.88;5111187;28;20083;-58
2022/09/30 04:11:35;;;;;;;9.73;7.85;;;;;;;11.86;56.51;99076.31;5112603;28;20051;-59
2022/09/30 04:14:02;;;;;;;8.63;7.50;;;;;;;11.86;56.64;99069.22;5112848;28;20142;-58
2022/09/30 04:16:29;;;;;;;13.95;8.68;;;;;;;11.85;56.75;99072.00;5112538;28;20104;-58
2022/09/30 04:18:56;;;;;;;9.90;8.13;;;;;;;11.85;56.87;99067.56;5112229;28;20054;-59
2022/09/30 04:21:23;;;;;;;11.95;8.93;;;;;;;11.85;56.89;99067.56;5112381;28;20492;-58
2022/09/30 04:23:49;;;;;;;10.73;8.55;;;;;;;11.84;57.13;99076.41;5112171;28;20043;-58
2022/09/30 04:26:18;;;;;;;10.45;9.38;;;;;;;11.84;57.00;99079.06;5112468;28;20091;-60
2022/09/30 04:28:45;;;;;;;16.00;10.30;;;;;;;11.83;56.72;99087.94;5110958;28;20079;-56
2022/09/30 04:31:13;;;;;;;10.18;9.00;;;;;;;11.83;56.73;99089.72;5112112;28;20048;-59
2022/09/30 04:33:40;;;;;;;12.20;9.27;;;;;;;11.81;56.82;99083.72;5110693;28;20083;-58
2022/09/30 04:36:06;;;;;;;11.65;9.30;;;;;;;11.79;56.85;99094.38;5111875;28;20097;-58
2022/09/30 04:38:33;;;;;;;10.55;9.45;;;;;;;11.75;56.83;99095.56;5111718;28;20101;-58
2022/09/30 04:41:04;;;;;;;12.95;10.25;;;;;;;11.72;57.01;99104.53;5111926;28;20105;-59
2022/09/30 04:43:33;;;;;;;11.65;9.63;;;;;;;11.71;56.73;99104.66;5111961;28;20134;-57
2022/09/30 04:46:00;;;;;;;13.70;10.35;;;;;;;11.68;56.98;99104.84;5110697;28;20051;-59
2022/09/30 04:48:29;;;;;;;12.35;11.05;;;;;;;11.65;56.95;99105.06;5110254;28;20066;-59
2022/09/30 04:50:58;;;;;;;10.25;9.15;;;;;;;11.61;57.04;99115.00;5111477;28;20048;-56
2022/09/30 04:53:25;;;;;;;11.80;9.80;;;;;;;11.59;57.08;99120.38;5111562;28;20665;-58
2022/09/30 04:55:58;;;;;;;12.50;9.95;;;;;;;11.53;57.59;99128.75;5111660;28;20487;-58
2022/09/30 04:58:25;;;;;;;12.32;9.57;;;;;;;11.52;57.12;99128.84;5110659;28;20464;-58
2022/09/30 05:00:59;;;;;;;11.25;10.05;;;;;;;11.45;57.71;99128.44;5111757;28;20058;-58
2022/09/30 05:03:25;;;;;;;12.23;9.77;;;;;;;11.44;57.25;99129.41;5110081;28;20051;-59
2022/09/30 05:05:52;;;;;;;12.10;9.80;;;;;;;11.38;57.34;99122.75;5111613;28;20122;-58
2022/09/30 05:08:19;;;;;;;11.75;9.63;;;;;;;11.34;57.52;99119.47;5111182;28;20094;-61
2022/09/30 05:10:56;;;;;;;12.43;9.85;;;;;;;11.28;58.16;99124.34;5111439;28;20639;-59
2022/09/30 05:13:24;;;;;;;14.35;10.13;;;;;;;11.26;57.71;99118.34;5111522;28;20048;-57
2022/09/30 05:15:51;;;;;;;12.73;10.38;;;;;;;11.22;58.08;99115.09;5109951;28;20043;-58
2022/09/30 05:18:19;;;;;;;13.75;10.63;;;;;;;11.19;57.96;99128.47;5111296;28;20134;-55
2022/09/30 05:20:50;;;;;;;15.32;10.52;;;;;;;11.14;58.23;99126.16;5110128;28;20047;-58
2022/09/30 05:23:18;;;;;;;13.70;9.88;;;;;;;11.13;58.13;99124.47;5110047;28;20096;-59
2022/09/30 05:25:46;;;;;;;13.20;10.93;;;;;;;11.10;57.90;99113.31;5111138;28;20051;-57
2022/09/30 05:28:13;;;;;;;11.50;9.93;;;;;;;11.07;57.99;99125.75;5109319;28;20557;-58
2022/09/30 05:30:42;;;;;;;13.82;10.57;;;;;;;11.03;58.04;99124.25;5111223;28;20047;-58
2022/09/30 05:33:09;;;;;;;12.80;10.48;;;;;;;11.01;58.25;99122.69;5110881;28;20090;-58
2022/09/30 05:35:36;;;;;;;12.27;10.35;;;;;;;10.98;58.15;99131.66;5109717;28;20131;-58
2022/09/30 05:38:03;;;;;;;11.82;10.52;;;;;;;10.95;58.47;99129.22;5110677;28;20492;-58
2022/09/30 05:40:31;;;;;;;13.15;10.77;;;;;;;10.93;58.65;99139.03;5110691;28;20048;-59
2022/09/30 05:42:58;;;;;;;11.52;10.25;;;;;;;10.91;58.35;99133.88;5110736;28;20047;-59
2022/09/30 05:45:25;;;;;;;13.70;10.27;;;;;;;10.90;58.65;99145.34;5109758;28;20476;-58
2022/09/30 05:47:53;;;;;;;12.77;10.68;;;;;;;10.90;58.69;99147.13;5110849;28;20051;-58
2022/09/30 05:50:21;;;;;;;17.73;12.25;;;;;;;10.89;59.08;99154.19;5110236;28;20047;-58
2022/09/30 05:52:48;;;;;;;17.15;11.43;;;;;;;10.90;58.59;99155.03;5110914;28;20302;-58
2022/09/30 05:55:16;;;;;;;14.15;11.32;;;;;;;10.88;58.71;99157.75;5110942;28;20055;-58
2022/09/30 05:57:44;;;;;;;14.55;11.73;;;;;;;10.87;58.80;99158.72;5110779;28;20512;-60
2022/09/30 06:00:11;;;;;;;14.73;11.57;;;;;;;10.85;58.85;99163.25;5110950;28;20067;-59
2022/09/30 06:02:38;;;;;;;13.90;11.30;;;;;;;10.85;58.80;99159.78;5110609;28;20071;-58
2022/09/30 06:05:05;;;;;;;16.38;11.02;;;;;;;10.84;58.94;99155.47;5110287;28;20093;-60
2022/09/30 06:07:33;;;;;;;14.35;11.80;;;;;;;10.84;58.96;99152.81;5110787;28;20112;-59
2022/09/30 06:10:04;;;;;;;14.77;11.63;;;;;;;10.84;59.08;99158.09;5112538;28;20550;-57
2022/09/30 06:12:31;;;;;;;16.83;11.90;;;;;;;10.82;59.04;99161.69;5114866;28;20047;-58
2022/09/30 06:14:57;;;;;;;13.40;11.07;;;;;;;10.84;59.08;99166.00;5114205;28;20097;-59
2022/09/30 06:17:24;;;;;;;12.40;10.18;;;;;;;10.84;59.11;99176.53;5114937;27;20082;-58
2022/09/30 06:19:50;;;;;;;13.50;10.63;;;;;;;10.82;59.15;99179.25;5114542;28;20118;-59
2022/09/30 06:22:17;;;;;;;12.65;10.68;;;;;;;10.82;59.25;99182.75;5114467;28;20044;-59
2022/09/30 06:24:45;;;;;;;13.38;11.20;;;;;;;10.82;59.25;99176.63;5112704;28;20047;-60
2022/09/30 06:27:12;;;;;;;14.48;11.45;;;;;;;10.82;59.19;99179.25;5112876;28;20090;-58
2022/09/30 06:29:38;;;;;;;13.57;10.98;;;;;;;10.81;59.34;99181.03;5114286;28;20070;-59
2022/09/30 06:32:06;;;;;;;12.65;10.85;;;;;;;10.80;59.25;99176.72;5114117;28;20083;-59
2022/09/30 06:34:33;;;;;;;16.08;12.60;;;;;;;10.80;59.40;99181.97;5112945;28;20040;-58
2022/09/30 06:37:00;;;;;;;14.40;11.40;;;;;;;10.80;59.38;99179.34;5112812;28;20074;-58
2022/09/30 06:39:27;;;;;;;15.10;11.32;;;;;;;10.80;59.49;99181.13;5112982;28;20469;-58
2022/09/30 06:41:55;;;;;;;14.35;12.05;;;;;;;10.80;59.54;99181.13;5114547;28;20097;-59
2022/09/30 06:44:21;;;;;;;13.23;11.63;;;;;;;10.80;59.62;99181.97;5114370;28;20083;-59
2022/09/30 06:46:48;;;;;;;18.77;12.15;;;;;;;10.80;59.51;99184.63;5113877;28;20086;-58
2022/09/30 06:49:20;;;;;;;12.02;10.63;;;;;;;10.80;59.58;99187.25;5111925;28;20090;-58
2022/09/30 06:51:46;;;;;;;17.48;10.82;;;;;;;10.80;59.59;99189.88;5113019;28;20108;-58
2022/09/30 06:54:13;;;;;;;15.88;11.20;;;;;;;10.79;59.57;99190.84;5113294;28;20083;-58
2022/09/30 06:56:39;;;;;;;14.55;10.18;;;;;;;10.79;59.76;99193.47;5113190;28;20078;-59
2022/09/30 06:59:07;;;;;;;13.77;11.20;;;;;;;10.80;59.67;99194.28;5113407;28;20151;-58
2022/09/30 07:01:34;;;;;;;15.32;10.52;;;;;;;10.81;59.81;99193.38;5112860;28;20474;-57
2022/09/30 07:04:06;;;;;;;16.52;10.10;;;;;;;10.81;59.78;99199.47;5113816;28;20077;-58
2022/09/30 07:06:33;;;;;;;12.93;10.38;;;;;;;10.81;59.84;99202.09;5113873;28;20431;-58
2022/09/30 07:08:59;;;;;;;16.30;10.85;;;;;;;10.82;59.80;99210.84;5113876;28;20156;-59
2022/09/30 07:11:26;;;;;;;15.38;10.93;;;;;;;10.81;59.79;99212.63;5112574;28;20102;-58
2022/09/30 07:13:53;;;;;;;13.63;10.70;;;;;;;10.82;60.07;99218.75;5113911;28;20086;-59
2022/09/30 07:16:20;;;;;;;13.18;10.93;;;;;;;10.82;59.96;99219.59;5113526;28;20097;-58
2022/09/30 07:18:46;;;;;;;16.60;12.00;;;;;;;10.84;60.08;99210.75;5113401;28;20043;-58
2022/09/30 07:21:14;;;;;;;13.65;11.02;;;;;;;10.84;60.22;99205.47;5112708;28;20051;-59
2022/09/30 07:23:46;;;;;;;16.60;11.63;;;;;;;10.86;60.34;99220.22;5113591;28;20507;-60
2022/09/30 07:26:19;;;;;;;14.70;11.82;;;;;;;10.86;60.79;99217.59;5113481;28;20509;-59
2022/09/30 07:28:47;;;;;;;14.43;11.68;;;;;;;10.89;60.28;99220.03;5112254;28;20146;-60
2022/09/30 07:31:17;;;;;;;14.82;11.95;;;;;;;10.92;60.60;99221.59;5113141;28;20135;-58
2022/09/30 07:34:06;;;;;;;13.65;10.68;;;;;;;10.97;60.52;99222.13;5112466;28;20060;-58
2022/09/30 07:36:34;;;;;;;15.20;11.37;;;;;;;11.00;60.52;99221.94;5113566;28;20509;-58
2022/09/30 07:39:04;;;;;;;17.08;12.10;;;;;;;11.03;60.75;99226.97;5113005;28;20313;-58
2022/09/30 07:41:32;;;;;;;13.35;11.40;;;;;;;11.08;60.65;99229.31;5113117;28;20488;-58
2022/09/30 07:43:58;;;;;;;13.45;11.35;;;;;;;11.11;60.61;99223.84;5113047;28;20139;-58
2022/09/30 07:46:29;;;;;;;17.08;12.30;;;;;;;11.15;60.93;99224.47;5113307;28;20128;-58
2022/09/30 07:49:00;;;;;;;16.67;11.82;;;;;;;11.19;60.58;99228.59;5113076;28;20059;-57
2022/09/30 07:51:32;;;;;;;13.63;11.68;;;;;;;11.22;60.84;99233.66;5113115;28;20495;-58
2022/09/30 07:54:12;;;;;;;15.60;11.10;;;;;;;11.24;61.09;99226.47;5112809;28;20051;-59
2022/09/30 07:56:40;;;;;;;15.93;11.95;;;;;;;11.31;60.45;99226.91;5113024;28;20052;-61
2022/09/30 07:59:28;;;;;;;13.73;11.73;;;;;;;11.34;60.53;99229.31;5112095;28;20051;-58
2022/09/30 08:01:55;;;;;;;15.10;12.40;;;;;;;11.40;60.45;99228.06;5112983;28;20043;-58
2022/09/30 08:04:23;;;;;;;15.45;12.73;;;;;;;11.41;60.72;99224.47;5112668;27;20055;-57
2022/09/30 08:06:54;;;;;;;16.92;13.10;;;;;;;11.47;60.97;99226.66;5112656;28;20060;-56
2022/09/30 08:09:22;;;;;;;17.55;13.52;;;;;;;11.52;60.74;99234.28;5112550;28;20097;-58
2022/09/30 08:11:49;;;;;;;16.92;13.18;;;;;;;11.56;60.63;99231.28;5112792;28;20044;-59
2022/09/30 08:14:20;;;;;;;16.10;13.02;;;;;;;11.62;60.89;99237.13;5112429;28;20059;-58
2022/09/30 08:16:47;;;;;;;16.48;13.02;;;;;;;11.67;60.73;99232.34;5112814;28;20106;-58
2022/09/30 08:19:18;;;;;;;19.17;13.73;;;;;;;11.73;60.87;99234.56;5112028;28;20058;-58
2022/09/30 08:21:45;;;;;;;15.98;13.10;;;;;;;11.79;60.67;99230.66;5112610;28;20094;-59
2022/09/30 08:24:13;;;;;;;18.27;13.43;;;;;;;11.85;60.70;99241.59;5112076;28;20051;-58
2022/09/30 08:26:40;;;;;;;16.27;13.23;;;;;;;11.90;60.50;99249.19;5112876;28;20488;-58
2022/09/30 08:29:09;;;;;;;15.95;13.25;;;;;;;11.95;60.58;99248.84;5112003;28;20142;-59
2022/09/30 08:31:40;;;;;;;19.90;13.73;;;;;;;11.99;60.61;99247.69;5112268;28;20506;-58
2022/09/30 08:34:07;;;;;;;16.85;13.13;;;;;;;12.04;60.30;99247.38;5110606;28;20047;-58
2022/09/30 08:36:34;;;;;;;16.42;13.13;;;;;;;12.09;60.68;99246.13;5112470;28;20059;-59
2022/09/30 08:39:01;;;;;;;20.88;14.32;;;;;;;12.14;60.65;99248.41;5111797;28;20078;-60
2022/09/30 08:41:58;;;;;;;17.50;13.00;;;;;;;12.17;61.01;99255.25;5111034;28;20082;-58
2022/09/30 08:44:36;;;;;;;15.20;11.88;;;;;;;12.29;60.89;99258.84;5111993;28;20059;-58
2022/09/30 08:47:34;;;;;;;14.77;12.63;;;;;;;12.33;60.88;99249.72;5112090;28;20522;-57
2022/09/30 08:50:13;;;;;;;16.77;11.52;;;;;;;12.44;60.76;99259.50;5111562;28;20093;-59
2022/09/30 08:52:44;;;;;;;15.63;11.25;;;;;;;12.49;60.71;99260.84;5111954;28;20043;-58
2022/09/30 08:55:24;;;;;;;16.23;11.73;;;;;;;12.55;60.62;99250.78;5112037;28;20048;-55
2022/09/30 08:57:53;;;;;;;16.40;11.68;;;;;;;12.61;60.47;99253.84;5110598;28;20047;-58
2022/09/30 09:00:21;;;;;;;17.25;11.93;;;;;;;12.68;60.38;99253.38;5112121;28;20092;-55
2022/09/30 09:02:53;;;;;;;15.05;11.85;;;;;;;12.71;60.34;99253.97;5111641;28;20089;-58
2022/09/30 09:05:46;;;;;;;19.83;12.53;;;;;;;12.78;60.52;99257.00;5111515;28;20112;-60
2022/09/30 09:09:05;;;;;;;15.27;12.13;;;;;;;12.86;60.44;99245.91;5111756;28;20632;-58
2022/09/30 09:11:44;;;;;;;14.05;10.23;;;;;;;12.97;60.14;99247.72;5034481;28;20156;-60
2022/09/30 09:14:52;;;;;;;17.83;11.98;;;;;;;13.05;60.15;99253.28;5111299;28;20488;-58
2022/09/30 09:17:50;;;;;;;13.48;10.82;;;;;;;13.11;60.20;99251.94;5028253;28;20145;-58
2022/09/30 09:20:41;;;;;;;14.63;10.75;;;;;;;13.24;60.09;99257.97;5014504;28;20041;-55
2022/09/30 09:23:11;;;;;;;15.10;10.93;;;;;;;13.32;59.86;99259.19;5099546;28;20495;-57
2022/09/30 09:25:38;;;;;;;15.63;11.07;;;;;;;13.38;59.77;99250.81;5110203;28;20052;-54
2022/09/30 09:28:21;;;;;;;12.00;10.23;;;;;;;13.42;59.56;99261.03;5109666;28;20093;-59
2022/09/30 09:30:54;;;;;;;22.02;10.60;;;;;;;13.50;59.86;99254.34;5111140;28;20100;-54
2022/09/30 09:33:25;;;;;;;;;;;;;;;13.56;59.74;99267.06;5110712;28;20056;-59
2022/09/30 09:36:10;;;;;;;14.02;9.75;;;;;;;13.64;59.69;99264.69;5111348;28;19977;-59
2022/09/30 09:39:00;;;;;;;14.15;9.93;;;;;;;13.71;60.00;99266.84;5110914;28;20145;-60
2022/09/30 09:42:11;;;;;;;12.68;9.82;;;;;;;13.81;60.00;99271.31;5080474;28;20151;-59
2022/09/30 09:44:40;;;;;;;11.52;9.07;;;;;;;13.95;59.40;99266.72;5094468;28;20043;-58
2022/09/30 09:47:16;;;;;;;15.18;10.40;;;;;;;14.02;59.78;99267.09;5110836;28;20526;-60
2022/09/30 09:49:49;;;;;;;16.50;10.85;;;;;;;14.11;59.66;99270.78;5109734;28;20044;-58
2022/09/30 09:52:25;;;;;;;15.27;9.73;;;;;;;14.18;59.58;99272.84;5111277;28;20059;-58
2022/09/30 09:54:55;;;;;;;14.50;11.40;;;;;;;14.27;59.52;99265.94;5110905;28;20048;-59
2022/09/30 09:57:26;;;;;;;42.75;11.15;;;;;;;14.37;59.56;99273.16;5110831;28;20051;-56
2022/09/30 10:03:07;;;;;;;12.80;9.43;;;;;;;14.59;59.31;99274.91;5110813;28;20450;-59
2022/09/30 10:05:41;;;;;;;14.50;10.05;;;;;;;14.72;59.24;99278.22;5110980;28;20044;-58
2022/09/30 10:08:15;;;;;;;17.35;10.68;;;;;;;14.82;58.78;99270.38;5110878;28;20124;-59
2022/09/30 10:10:43;;;;;;;14.13;9.50;;;;;;;14.96;58.83;99274.53;5109666;28;20051;-58
2022/09/30 10:13:19;;;;;;;13.52;10.98;;;;;;;15.05;59.00;99277.38;5110541;28;20083;-58
2022/09/30 10:15:47;;;;;;;14.68;10.65;;;;;;;15.21;58.82;99276.91;5110717;28;20458;-59
2022/09/30 10:18:22;;;;;;;13.50;9.90;;;;;;;15.31;58.75;99279.63;5109142;28;20411;-60
2022/09/30 10:21:01;;;;;;;13.68;10.13;;;;;;;15.45;58.62;99274.03;5109374;28;20073;-59
2022/09/30 10:23:36;;;;;;;15.43;9.95;;;;;;;15.65;58.63;99274.09;5110699;28;20043;-59
2022/09/30 10:26:16;;;;;;;10.63;8.63;;;;;;;15.83;58.48;99271.69;5109251;28;20142;-59
2022/09/30 10:28:47;;;;;;;14.63;10.02;;;;;;;16.00;57.53;99267.56;5110776;28;20078;-58
2022/09/30 10:31:25;;;;;;;11.75;8.95;;;;;;;16.19;57.70;99263.31;5110892;28;20113;-59
2022/09/30 10:34:12;;;;;;;37.22;10.82;;;;;;;16.36;57.38;99255.63;5109467;28;20487;-59
2022/09/30 10:36:42;;;;;;;11.63;7.85;;;;;;;16.57;57.36;99260.00;5110779;28;20056;-58
2022/09/30 10:39:33;;;;;;;13.80;7.75;;;;;;;16.71;56.10;99262.22;5110590;28;20044;-58
2022/09/30 10:42:22;;;;;;;13.90;8.73;;;;;;;16.87;55.30;99261.69;5110639;28;20056;-58
2022/09/30 10:44:55;;;;;;;8.95;7.53;;;;;;;17.03;54.73;99266.44;5110441;28;20494;-58
2022/09/30 10:47:25;;;;;;;11.63;7.55;;;;;;;17.10;54.41;99263.22;5110329;28;20388;-60
2022/09/30 10:49:59;;;;;;;13.00;7.95;;;;;;;17.14;54.02;99257.47;5110507;28;20139;-58
2022/09/30 10:52:31;;;;;;;12.05;7.45;;;;;;;17.20;53.94;99253.41;5109250;28;20059;-59
2022/09/30 10:55:04;;;;;;;8.85;6.60;;;;;;;17.29;54.13;99257.88;5110762;28;20433;-59
2022/09/30 10:57:39;;;;;;;10.18;7.05;;;;;;;17.40;54.72;99248.03;5112790;28;20124;-58
2022/09/30 11:00:12;;;;;;;8.00;6.65;;;;;;;17.53;54.49;99253.06;5114067;28;20055;-58
2022/09/30 11:02:45;;;;;;;10.05;7.10;;;;;;;17.70;54.28;99252.28;5112878;28;20044;-59
2022/09/30 11:05:23;;;;;;;9.60;7.05;;;;;;;17.94;53.57;99256.22;5112773;28;20502;-58
2022/09/30 11:08:20;;;;;;;8.00;6.07;;;;;;;18.23;54.02;99252.59;5113806;28;20366;-58
2022/09/30 11:10:56;;;;;;;8.38;6.30;;;;;;;18.73;55.87;99254.91;5113981;28;20060;-59
2022/09/30 11:13:36;;;;;;;11.30;6.85;;;;;;;19.31;54.02;99247.38;5113694;28;20043;-57
2022/09/30 11:16:28;;;;;;;10.35;6.57;;;;;;;20.04;55.90;99258.59;5112661;28;20052;-58
2022/09/30 11:19:02;;;;;;;6.60;5.18;;;;;;;20.93;57.22;99259.13;5113895;28;20050;-58
2022/09/30 11:21:47;;;;;;;8.77;6.10;;;;;;;21.81;51.74;99266.50;5113769;28;20475;-60
2022/09/30 11:24:31;;;;;;;7.05;5.93;;;;;;;22.58;50.00;99261.44;5113302;28;20079;-57
2022/09/30 11:27:10;;;;;;;9.68;5.57;;;;;;;23.26;48.20;99258.88;5112320;28;20495;-58
2022/09/30 11:30:11;;;;;;;5.63;4.90;;;;;;;23.80;46.59;99262.34;5113131;28;20059;-60
2022/09/30 11:32:53;;;;;;;13.75;5.88;;;;;;;24.28;46.21;99250.31;5113463;28;20524;-59
2022/09/30 11:35:40;;;;;;;5.05;4.55;;;;;;;24.75;45.18;99257.19;5113478;28;20075;-61
2022/09/30 11:38:25;;;;;;;5.82;4.55;;;;;;;25.24;44.27;99255.56;5113576;28;20553;-61
2022/09/30 11:41:04;;;;;;;7.85;4.55;;;;;;;25.55;41.58;99253.47;5113037;28;20079;-58
2022/09/30 11:43:59;;;;;;;7.07;4.40;;;;;;;25.59;41.55;99254.75;5113430;28;20047;-59
2022/09/30 11:46:56;;;;;;;6.80;4.32;;;;;;;25.45;40.75;99259.22;5113321;28;20124;-60
2022/09/30 11:49:36;;;;;;;5.63;4.72;;;;;;;25.25;41.10;99259.91;5113265;28;20044;-59
2022/09/30 11:52:18;;;;;;;6.03;3.88;;;;;;;24.96;40.03;99251.81;5113251;28;20048;-58
2022/09/30 11:55:07;;;;;;;4.53;4.03;;;;;;;24.79;40.30;99245.03;5113102;28;20067;-58
2022/09/30 11:58:13;;;;;;;6.45;3.72;;;;;;;24.55;41.33;99241.69;5099269;28;20043;-60
2022/09/30 12:01:09;;;;;;;4.63;4.13;;;;;;;24.51;39.96;99238.56;5108615;28;20048;-59